createdAt,value
2022-11-02T00:01:24.479Z,95924.78
2022-11-02T00:03:51.654Z,95911.22
2022-11-02T00:06:18.887Z,95920.91
2022-11-02T00:08:45.430Z,95916.25
2022-11-02T00:11:12.045Z,95928.25
2022-11-02T00:13:38.649Z,95949.56
2022-11-02T00:16:07.926Z,95932.53
2022-11-02T00:18:35.806Z,95937.16
2022-11-02T00:21:02.653Z,95930.97
2022-11-02T00:23:30.145Z,95923.97
2022-11-02T00:26:00.681Z,95930.97
2022-11-02T00:28:28.831Z,95935.56
2022-11-02T00:30:55.425Z,95944.91
2022-11-02T00:33:21.849Z,95946.47
2022-11-02T00:35:48.492Z,95943.31
2022-11-02T00:38:15.001Z,95956.91
2022-11-02T00:40:41.426Z,95949.53
2022-11-02T00:43:07.902Z,95954.97
2022-11-02T00:45:34.520Z,95958.84
2022-11-02T00:48:01.909Z,95947.19
2022-11-02T00:50:28.521Z,95955.75
2022-11-02T00:52:56.918Z,95951.06
2022-11-02T00:55:23.409Z,95956.53
2022-11-02T00:57:49.922Z,95973.97
2022-11-02T01:00:16.539Z,95959.59
2022-11-02T01:02:43.176Z,95959.59
2022-11-02T01:05:11.348Z,95957.69
2022-11-02T01:07:38.406Z,95951.84
2022-11-02T01:10:06.061Z,95958.84
2022-11-02T01:12:32.548Z,95953.38
2022-11-02T01:14:59.018Z,95965.78
2022-11-02T01:17:27.811Z,95969.31
2022-11-02T01:19:54.425Z,95957.25
2022-11-02T01:22:23.242Z,95962.69
2022-11-02T01:24:51.562Z,95958.84
2022-11-02T01:27:18.033Z,95958.81
2022-11-02T01:29:44.451Z,95960.41
2022-11-02T01:32:10.929Z,95953.38
2022-11-02T01:34:37.380Z,95947.97
2022-11-02T01:37:05.935Z,95953.81
2022-11-02T01:39:32.406Z,95942.53
2022-11-02T01:41:58.943Z,95946.84
2022-11-02T01:44:35.559Z,95936.72
2022-11-02T01:47:07.885Z,95936.34
2022-11-02T01:49:36.690Z,95944.88
2022-11-02T01:52:17.369Z,95929.34
2022-11-02T01:54:46.923Z,95939.44
2022-11-02T01:57:16.654Z,95932.84
2022-11-02T02:00:09.854Z,95937.91
2022-11-02T02:02:40.142Z,95935.94
2022-11-02T02:05:09.642Z,95944.84
2022-11-02T02:07:39.147Z,95936.34
2022-11-02T02:10:08.378Z,95918.44
2022-11-02T02:12:35.568Z,95935.56
2022-11-02T02:15:02.261Z,95933.97
2022-11-02T02:17:46.747Z,95933.97
2022-11-02T02:20:16.296Z,95935.50
2022-11-02T02:23:01.744Z,95928.50
2022-11-02T02:25:39.162Z,95930.47
2022-11-02T02:28:08.349Z,95923.84
2022-11-02T02:30:40.114Z,95936.66
2022-11-02T02:33:13.696Z,95933.56
2022-11-02T02:35:40.066Z,95933.53
2022-11-02T02:38:12.870Z,95944.81
2022-11-02T02:40:41.239Z,95937.41
2022-11-02T02:43:07.698Z,95939.38
2022-11-02T02:45:44.641Z,95935.50
2022-11-02T02:48:13.425Z,95936.25
2022-11-02T02:51:00.650Z,95940.94
2022-11-02T02:53:42.173Z,95934.72
2022-11-02T02:56:10.196Z,95952.94
2022-11-02T02:58:43.606Z,95954.88
2022-11-02T03:01:12.735Z,95946.34
2022-11-02T03:03:40.725Z,95951.00
2022-11-02T03:06:10.849Z,95931.22
2022-11-02T03:08:38.655Z,95948.69
2022-11-02T03:11:12.327Z,95945.97
2022-11-02T03:13:42.782Z,95951.75
2022-11-02T03:16:20.437Z,95956.03
2022-11-02T03:18:55.714Z,95943.97
2022-11-02T03:21:26.622Z,95952.94
2022-11-02T03:24:00.737Z,95954.09
2022-11-02T03:26:46.937Z,95945.56
2022-11-02T03:29:16.429Z,95950.59
2022-11-02T03:32:06.055Z,95951.72
2022-11-02T03:34:35.531Z,95959.91
2022-11-02T03:37:20.406Z,95951.72
2022-11-02T03:39:57.658Z,95964.56
2022-11-02T03:42:26.881Z,95948.66
2022-11-02T03:45:08.489Z,95951.75
2022-11-02T03:47:36.745Z,95957.19
2022-11-02T03:50:07.826Z,95944.72
2022-11-02T03:52:37.017Z,95952.53
2022-11-02T03:55:08.696Z,95947.81
2022-11-02T03:58:01.736Z,95951.72
2022-11-02T04:00:31.245Z,95950.16
2022-11-02T04:02:59.721Z,95947.03
2022-11-02T04:05:31.001Z,95945.50
2022-11-02T04:08:17.245Z,95936.16
2022-11-02T04:11:01.937Z,95956.38
2022-11-02T04:13:46.904Z,95951.69
2022-11-02T04:16:13.974Z,95960.22
2022-11-02T04:19:01.504Z,95953.22
2022-11-02T04:21:28.226Z,95952.44
2022-11-02T04:24:15.617Z,95958.66
2022-11-02T04:26:44.382Z,95938.41
2022-11-02T04:29:11.039Z,95956.31
2022-11-02T04:31:37.565Z,95948.50
2022-11-02T04:34:04.018Z,95959.38
2022-11-02T04:36:31.010Z,95964.81
2022-11-02T04:38:57.879Z,95956.25
2022-11-02T04:41:43.127Z,95963.28
2022-11-02T04:44:14.606Z,95964.38
2022-11-02T04:46:41.673Z,95967.13
2022-11-02T04:49:08.624Z,95971.41
2022-11-02T04:51:35.869Z,95971.75
2022-11-02T04:54:02.554Z,95997.03
2022-11-02T04:56:29.799Z,95996.56
2022-11-02T04:59:00.037Z,96007.47
2022-11-02T05:01:28.364Z,96003.56
2022-11-02T05:03:55.511Z,96014.81
2022-11-02T05:06:23.853Z,96030.75
2022-11-02T05:08:50.340Z,96014.41
2022-11-02T05:11:16.903Z,96031.09
2022-11-02T05:13:46.645Z,96041.19
2022-11-02T05:16:14.774Z,96034.59
2022-11-02T05:18:41.617Z,96047.03
2022-11-02T05:21:09.312Z,96029.94
2022-11-02T05:23:35.742Z,96047.00
2022-11-02T05:26:03.817Z,96064.09
2022-11-02T05:28:30.930Z,96052.03
2022-11-02T05:30:59.017Z,96068.75
2022-11-02T05:33:30.285Z,96067.94
2022-11-02T05:35:57.727Z,96069.50
2022-11-02T05:38:25.123Z,96074.97
2022-11-02T05:41:00.875Z,96062.50
2022-11-02T05:43:27.331Z,96076.53
2022-11-02T05:45:56.383Z,96065.28
2022-11-02T05:48:24.205Z,96066.41
2022-11-02T05:50:57.017Z,96081.19
2022-11-02T05:53:27.135Z,96082.72
2022-11-02T05:55:57.815Z,96099.00
2022-11-02T05:58:24.496Z,96103.66
2022-11-02T06:00:50.994Z,96104.03
2022-11-02T06:03:18.006Z,96113.00
2022-11-02T06:05:45.880Z,96112.97
2022-11-02T06:08:12.378Z,96124.59
2022-11-02T06:10:42.566Z,96120.34
2022-11-02T06:13:10.140Z,96126.91
2022-11-02T06:15:36.635Z,96133.91
2022-11-02T06:18:03.125Z,96128.47
2022-11-02T06:20:31.518Z,96137.78
2022-11-02T06:23:01.109Z,96133.13
2022-11-02T06:25:29.970Z,96130.41
2022-11-02T06:27:57.058Z,96133.91
2022-11-02T06:30:24.286Z,96117.19
2022-11-02T06:32:51.879Z,96126.91
2022-11-02T06:35:19.252Z,96124.56
2022-11-02T06:37:46.286Z,96116.81
2022-11-02T06:40:13.370Z,96118.34
2022-11-02T06:42:45.354Z,96102.44
2022-11-02T06:45:23.453Z,96112.94
2022-11-02T06:47:49.897Z,96095.06
2022-11-02T06:50:16.610Z,96095.84
2022-11-02T06:52:47.051Z,96083.84
2022-11-02T06:55:15.053Z,96079.16
2022-11-02T06:57:42.123Z,96079.56
2022-11-02T07:00:14.535Z,96055.91
2022-11-02T07:02:45.833Z,96072.97
2022-11-02T07:05:13.193Z,96062.13
2022-11-02T07:07:40.609Z,96060.94
2022-11-02T07:10:10.530Z,96063.28
2022-11-02T07:12:37.410Z,96040.00
2022-11-02T07:15:03.925Z,96047.38
2022-11-02T07:17:32.309Z,96057.84
2022-11-02T07:20:01.346Z,96040.00
2022-11-02T07:22:27.802Z,96040.78
2022-11-02T07:24:54.290Z,96029.13
2022-11-02T07:27:20.801Z,96038.09
2022-11-02T07:29:47.528Z,96020.56
2022-11-02T07:32:14.017Z,96026.78
2022-11-02T07:34:40.478Z,96012.84
2022-11-02T07:37:06.946Z,96007.34
2022-11-02T07:39:33.484Z,96008.97
2022-11-02T07:41:59.995Z,96001.16
2022-11-02T07:44:26.477Z,96002.69
2022-11-02T07:46:52.969Z,96005.81
2022-11-02T07:49:21.601Z,95998.00
2022-11-02T07:51:48.197Z,96005.81
2022-11-02T07:54:14.654Z,95999.56
2022-11-02T07:56:43.743Z,95984.00
2022-11-02T07:59:10.642Z,95987.94
2022-11-02T08:01:37.336Z,95966.13
2022-11-02T08:04:04.614Z,95973.91
2022-11-02T08:06:31.695Z,95962.25
2022-11-02T08:08:58.167Z,95959.88
2022-11-02T08:11:26.430Z,95956.44
2022-11-02T08:13:52.938Z,95946.66
2022-11-02T08:16:19.382Z,95938.16
2022-11-02T08:18:47.927Z,95931.91
2022-11-02T08:21:14.322Z,95920.19
2022-11-02T08:23:40.783Z,95931.09
2022-11-02T08:26:07.238Z,95912.78
2022-11-02T08:28:36.860Z,95901.50
2022-11-02T08:31:03.383Z,95900.34
2022-11-02T08:33:29.913Z,95889.00
2022-11-02T08:36:01.271Z,95902.28
2022-11-02T08:38:27.664Z,95890.94
2022-11-02T08:40:54.993Z,95899.50
2022-11-02T08:43:21.529Z,95890.59
2022-11-02T08:46:13.711Z,95883.53
2022-11-02T08:48:34.875Z,95886.69
2022-11-02T08:51:01.412Z,95878.78
2022-11-02T08:53:28.383Z,95878.09
2022-11-02T08:55:57.048Z,95881.88
2022-11-02T08:58:23.979Z,95872.50
2022-11-02T09:00:52.409Z,95875.63
2022-11-02T09:03:26.015Z,95853.69
2022-11-02T09:05:57.550Z,95865.09
2022-11-02T09:10:51.827Z,95855.16
2022-11-02T09:13:20.884Z,95861.69
2022-11-02T09:15:49.708Z,95844.09
2022-11-02T09:18:16.366Z,95863.22
2022-11-02T09:20:42.799Z,95853.38
2022-11-02T09:23:09.290Z,95874.03
2022-11-02T09:25:35.842Z,95880.63
2022-11-02T09:28:02.365Z,95888.34
2022-11-02T09:30:29.001Z,95903.19
2022-11-02T09:32:56.874Z,95893.28
2022-11-02T09:35:23.881Z,95910.81
2022-11-02T09:37:52.665Z,95905.19
2022-11-02T09:40:23.166Z,95904.19
2022-11-02T09:43:10.422Z,95914.31
2022-11-02T09:45:51.745Z,95926.66
2022-11-02T09:48:28.850Z,95965.94
2022-11-02T09:51:08.850Z,95988.34
2022-11-02T09:53:44.401Z,96035.19
2022-11-02T09:56:12.202Z,96057.28
2022-11-02T09:58:40.191Z,96087.97
2022-11-02T10:01:33.210Z,96119.88
2022-11-02T10:04:06.506Z,96138.41
2022-11-02T10:06:35.765Z,96182.47
2022-11-02T10:09:11.248Z,96194.41
2022-11-02T10:11:40.523Z,96236.50
2022-11-02T10:14:19.299Z,96247.34
2022-11-02T10:16:53.519Z,96275.38
2022-11-02T10:19:23.869Z,96296.00
2022-11-02T10:21:57.204Z,96305.69
2022-11-02T10:24:25.573Z,96324.03
2022-11-02T10:27:02.734Z,96321.25
2022-11-02T10:29:47.708Z,96334.47
2022-11-02T10:32:14.946Z,96306.44
2022-11-02T10:34:42.283Z,96325.50
2022-11-02T10:37:17.772Z,96323.56
2022-11-02T10:39:47.189Z,96315.72
2022-11-02T10:42:32.268Z,96350.81
2022-11-02T10:45:17.091Z,96339.09
2022-11-02T10:48:03.205Z,96376.09
2022-11-02T10:50:53.456Z,96378.78
2022-11-02T10:53:39.948Z,96402.13
2022-11-02T10:56:24.092Z,96405.22
2022-11-02T10:58:50.612Z,96401.34
2022-11-02T11:01:17.165Z,96401.72
2022-11-02T11:03:56.112Z,96400.84
2022-11-02T11:06:27.801Z,96402.84
2022-11-02T11:08:59.024Z,96392.69
2022-11-02T11:11:27.214Z,96412.94
2022-11-02T11:16:48.292Z,96419.94
2022-11-02T11:22:26.211Z,96417.50
2022-11-02T11:24:53.094Z,96436.22
2022-11-02T11:27:23.121Z,96435.41
2022-11-02T11:29:52.117Z,96465.03
2022-11-02T11:32:29.919Z,96477.09
2022-11-02T11:35:04.575Z,96494.59
2022-11-02T11:37:31.379Z,96521.81
2022-11-02T11:40:00.275Z,96522.59
2022-11-02T11:42:28.912Z,96533.13
2022-11-02T11:45:01.291Z,96529.59
2022-11-02T11:47:29.619Z,96527.66
2022-11-02T11:50:19.149Z,96518.31
2022-11-02T11:52:44.218Z,96525.31
2022-11-02T11:55:26.630Z,96520.66
2022-11-02T11:58:08.194Z,96510.13
2022-11-02T12:00:34.850Z,96518.72
2022-11-02T12:03:11.375Z,96507.78
2022-11-02T12:05:57.927Z,96519.50
2022-11-02T12:08:34.860Z,96516.38
2022-11-02T12:11:04.366Z,96514.44
2022-11-02T12:13:43.554Z,96506.66
2022-11-02T12:16:32.358Z,96507.78
2022-11-02T12:19:01.566Z,96507.44
2022-11-02T12:21:57.403Z,96500.00
2022-11-02T12:24:25.976Z,96517.16
2022-11-02T12:27:20.560Z,96509.31
2022-11-02T12:30:01.257Z,96516.75
2022-11-02T12:32:27.659Z,96522.19
2022-11-02T12:35:30.282Z,96514.03
2022-11-02T12:38:15.469Z,96517.88
2022-11-02T12:40:41.885Z,96520.59
2022-11-02T12:43:19.716Z,96533.09
2022-11-02T12:46:01.316Z,96542.00
2022-11-02T12:48:37.229Z,96573.53
2022-11-02T12:51:13.283Z,96571.97
2022-11-02T12:53:43.960Z,96589.88
2022-11-02T12:56:19.888Z,96595.31
2022-11-02T12:58:46.517Z,96599.59
2022-11-02T13:01:25.858Z,96605.84
2022-11-02T13:04:01.684Z,96605.81
2022-11-02T13:06:37.670Z,96624.50
2022-11-02T13:09:13.253Z,96614.00
2022-11-02T13:11:44.617Z,96626.84
2022-11-02T13:14:20.326Z,96629.56
2022-11-02T13:16:59.626Z,96626.84
2022-11-02T13:19:39.182Z,96636.56
2022-11-02T13:22:10.818Z,96619.06
2022-11-02T13:24:44.064Z,96623.72
2022-11-02T13:27:36.004Z,96619.84
2022-11-02T13:30:06.244Z,96633.06
2022-11-02T13:32:35.680Z,96631.50
2022-11-02T13:35:27.395Z,96645.50
2022-11-02T13:37:57.173Z,96650.94
2022-11-02T13:40:32.538Z,96655.59
2022-11-02T13:43:07.118Z,96663.38
2022-11-02T13:45:54.855Z,96650.94
2022-11-02T13:48:39.997Z,96659.09
2022-11-02T13:51:26.611Z,96653.28
2022-11-02T13:53:55.903Z,96648.19
2022-11-02T13:56:24.456Z,96640.81
2022-11-02T13:58:58.626Z,96644.31
2022-11-02T14:01:25.692Z,96642.38
2022-11-02T14:04:01.385Z,96619.84
2022-11-02T14:06:30.947Z,96626.06
2022-11-02T14:09:02.729Z,96620.22
2022-11-02T14:11:41.255Z,96633.44
2022-11-02T14:14:10.685Z,96628.41
2022-11-02T14:16:42.774Z,96615.97
2022-11-02T14:19:20.738Z,96609.34
2022-11-02T14:21:59.405Z,96592.22
2022-11-02T14:24:35.132Z,96607.38
2022-11-02T14:27:03.850Z,96607.41
2022-11-02T14:29:42.439Z,96619.03
2022-11-02T14:32:15.605Z,96612.84
2022-11-02T14:34:48.099Z,96601.56
2022-11-02T14:37:28.364Z,96598.84
2022-11-02T14:40:08.211Z,96599.25
2022-11-02T14:42:37.955Z,96610.88
2022-11-02T14:45:07.175Z,96597.28
2022-11-02T14:47:35.521Z,96598.84
2022-11-02T14:50:01.976Z,96594.16
2022-11-02T14:52:35.808Z,96591.44
2022-11-02T14:55:04.356Z,96590.69
2022-11-02T14:57:42.121Z,96578.63
2022-11-02T15:00:23.135Z,96568.91
2022-11-02T15:02:50.120Z,96548.31
2022-11-02T15:05:26.888Z,96556.88
2022-11-02T15:07:58.342Z,96548.72
2022-11-02T15:10:30.970Z,96539.78
2022-11-02T15:13:29.764Z,96537.44
2022-11-02T15:15:56.169Z,96522.69
2022-11-02T15:18:31.605Z,96518.03
2022-11-02T15:21:13.031Z,96510.25
2022-11-02T15:23:42.326Z,96501.72
2022-11-02T15:26:12.406Z,96488.88
2022-11-02T15:28:39.099Z,96486.16
2022-11-02T15:31:07.587Z,96479.97
2022-11-02T15:33:36.627Z,96471.41
2022-11-02T15:36:04.137Z,96476.88
2022-11-02T15:38:36.704Z,96466.78
2022-11-02T15:41:14.332Z,96468.31
2022-11-02T15:43:43.539Z,96461.31
2022-11-02T15:46:39.012Z,96448.88
2022-11-02T15:49:11.210Z,96452.41
2022-11-02T15:51:53.952Z,96456.69
2022-11-02T15:54:47.553Z,96452.00
2022-11-02T15:57:20.050Z,96441.91
2022-11-02T15:59:58.722Z,96440.34
2022-11-02T16:02:25.159Z,96440.38
2022-11-02T16:04:53.806Z,96434.50
2022-11-02T16:07:21.737Z,96443.47
2022-11-02T16:09:48.344Z,96422.09
2022-11-02T16:12:21.789Z,96424.81
2022-11-02T16:15:09.139Z,96417.06
2022-11-02T16:17:35.556Z,96388.28
2022-11-02T16:20:28.384Z,96384.06
2022-11-02T16:23:05.268Z,96375.50
2022-11-02T16:25:40.376Z,96359.59
2022-11-02T16:28:25.462Z,96349.09
2022-11-02T16:31:05.463Z,96340.19
2022-11-02T16:33:41.169Z,96323.47
2022-11-02T16:36:08.910Z,96295.13
2022-11-02T16:38:36.252Z,96273.41
2022-11-02T16:41:03.391Z,96258.63
2022-11-02T16:43:30.005Z,96243.91
2022-11-02T16:46:00.111Z,96215.56
2022-11-02T16:48:27.985Z,96195.72
2022-11-02T16:51:00.589Z,96186.44
2022-11-02T16:53:29.186Z,96165.44
2022-11-02T16:56:00.644Z,96152.28
2022-11-02T16:58:27.549Z,96135.22
2022-11-02T17:00:54.454Z,96116.16
2022-11-02T17:03:23.436Z,96104.16
2022-11-02T17:05:51.447Z,96090.13
2022-11-02T17:08:23.805Z,96090.56
2022-11-02T17:10:54.134Z,96080.09
2022-11-02T17:13:22.194Z,96051.69
2022-11-02T17:15:49.865Z,96046.72
2022-11-02T17:18:25.926Z,96000.50
2022-11-02T17:21:11.223Z,96020.69
2022-11-02T17:23:37.701Z,96041.28
2022-11-02T17:26:16.418Z,96028.81
2022-11-02T17:28:44.959Z,96044.41
2022-11-02T17:31:19.012Z,96018.75
2022-11-02T17:33:48.435Z,96033.16
2022-11-02T17:36:15.477Z,96046.75
2022-11-02T17:38:42.133Z,96033.50
2022-11-02T17:41:36.910Z,96039.81
2022-11-02T17:44:03.776Z,96010.63
2022-11-02T17:46:32.688Z,96029.72
2022-11-02T17:49:05.064Z,96022.75
2022-11-02T17:51:31.934Z,96010.66
2022-11-02T17:53:58.400Z,96020.06
2022-11-02T17:56:24.788Z,96005.63
2022-11-02T17:58:51.174Z,96012.66
2022-11-02T18:01:18.406Z,96020.47
2022-11-02T18:03:46.474Z,96004.06
2022-11-02T18:06:12.956Z,96017.75
2022-11-02T18:08:57.818Z,96008.38
2022-11-02T18:11:26.466Z,96011.13
2022-11-02T18:13:53.460Z,96015.44
2022-11-02T18:16:20.458Z,95997.94
2022-11-02T18:18:46.930Z,96016.66
2022-11-02T18:21:13.510Z,96002.59
2022-11-02T18:23:41.080Z,96005.00
2022-11-02T18:26:09.563Z,96011.22
2022-11-02T18:28:36.032Z,95998.34
2022-11-02T18:31:02.659Z,96001.91
2022-11-02T18:33:29.281Z,95984.38
2022-11-02T18:36:01.910Z,95999.59
2022-11-02T18:38:28.393Z,96003.09
2022-11-02T18:40:54.944Z,95997.25
2022-11-02T18:43:21.406Z,96005.81
2022-11-02T18:45:47.862Z,95995.31
2022-11-02T18:48:14.296Z,96015.53
2022-11-02T18:50:40.688Z,96021.34
2022-11-02T18:53:07.106Z,96028.31
2022-11-02T18:55:33.615Z,96047.00
2022-11-02T18:58:00.131Z,96033.03
2022-11-02T19:00:26.520Z,96052.44
2022-11-02T19:02:54.949Z,96040.41
2022-11-02T19:05:40.960Z,96047.72
2022-11-02T19:08:27.304Z,96049.31
2022-11-02T19:10:53.734Z,96044.63
2022-11-02T19:13:20.389Z,96057.47
2022-11-02T19:15:46.918Z,96036.91
2022-11-02T19:18:13.329Z,96049.34
2022-11-02T19:20:40.268Z,96052.81
2022-11-02T19:23:08.575Z,96049.72
2022-11-02T19:25:35.281Z,96061.00
2022-11-02T19:28:01.839Z,96040.00
2022-11-02T19:30:28.253Z,96053.22
2022-11-02T19:32:54.758Z,96042.34
2022-11-02T19:35:21.158Z,96036.53
2022-11-02T19:37:47.622Z,96049.78
2022-11-02T19:40:14.235Z,96037.75
2022-11-02T19:42:41.522Z,96053.31
2022-11-02T19:45:08.209Z,96052.50
2022-11-02T19:47:34.702Z,96052.09
2022-11-02T19:50:01.149Z,96046.31
2022-11-02T19:52:27.615Z,96023.78
2022-11-02T19:54:54.102Z,96039.31
2022-11-02T19:57:20.945Z,96018.38
2022-11-02T19:59:49.478Z,96016.03
2022-11-02T20:02:16.101Z,96017.59
2022-11-02T20:04:44.299Z,95991.97
2022-11-02T20:07:11.437Z,95995.91
2022-11-02T20:09:37.837Z,95981.94
2022-11-02T20:12:04.904Z,95997.44
2022-11-02T20:14:33.467Z,96002.91
2022-11-02T20:17:18.149Z,95993.16
2022-11-02T20:19:48.567Z,95992.06
2022-11-02T20:22:15.027Z,95986.56
2022-11-02T20:24:41.421Z,95991.63
2022-11-02T20:27:08.302Z,95984.31
2022-11-02T20:29:34.739Z,95954.78
2022-11-02T20:32:01.325Z,95977.34
2022-11-02T20:34:27.935Z,95961.38
2022-11-02T20:36:56.579Z,95967.97
2022-11-02T20:39:22.985Z,95958.28
2022-11-02T20:41:56.385Z,95943.88
2022-11-02T20:44:24.038Z,95961.00
2022-11-02T20:46:53.311Z,95954.38
2022-11-02T20:49:22.105Z,95958.28
2022-11-02T20:51:55.858Z,95963.31
2022-11-02T20:54:22.502Z,95970.25
2022-11-02T20:56:49.655Z,95982.72
2022-11-02T20:59:16.269Z,95974.16
2022-11-02T21:01:43.049Z,95992.41
2022-11-02T21:04:13.874Z,95999.00
2022-11-02T21:06:45.586Z,96004.41
2022-11-02T21:09:12.417Z,96027.69
2022-11-02T21:11:57.742Z,96019.91
2022-11-02T21:14:24.208Z,96043.22
2022-11-02T21:16:50.616Z,96031.56
2022-11-02T21:19:17.101Z,96050.16
2022-11-02T21:21:43.590Z,96050.97
2022-11-02T21:24:10.058Z,96058.69
2022-11-02T21:26:36.714Z,96079.28
2022-11-02T21:29:05.446Z,96076.53
2022-11-02T21:31:33.742Z,96097.50
2022-11-02T21:34:00.279Z,96102.53
2022-11-02T21:36:28.521Z,96104.44
2022-11-02T21:38:56.014Z,96116.09
2022-11-02T21:41:26.191Z,96111.44
2022-11-02T21:43:52.587Z,96125.38
2022-11-02T21:46:22.370Z,96130.03
2022-11-02T21:48:48.889Z,96132.00
2022-11-02T21:51:16.429Z,96135.47
2022-11-02T21:53:43.645Z,96127.72
2022-11-02T21:56:11.279Z,96142.44
2022-11-02T21:58:43.007Z,96144.00
2022-11-02T22:01:33.251Z,96144.75
2022-11-02T22:04:00.169Z,96155.25
2022-11-02T22:06:31.251Z,96150.59
2022-11-02T22:08:59.316Z,96168.81
2022-11-02T22:11:29.333Z,96164.94
2022-11-02T22:13:56.934Z,96166.47
2022-11-02T22:16:31.794Z,96173.44
2022-11-02T22:19:03.438Z,96168.03
2022-11-02T22:21:31.567Z,96181.19
2022-11-02T22:23:58.370Z,96174.22
2022-11-02T22:26:26.182Z,96180.41
2022-11-02T22:28:53.149Z,96193.59
2022-11-02T22:31:23.761Z,96173.47
2022-11-02T22:33:51.391Z,96187.41
2022-11-02T22:36:19.667Z,96178.88
2022-11-02T22:38:51.367Z,96184.28
2022-11-02T22:41:22.826Z,96191.25
2022-11-02T22:43:50.642Z,96180.81
2022-11-02T22:46:17.155Z,96195.91
2022-11-02T22:48:43.650Z,96193.19
2022-11-02T22:51:10.483Z,96201.72
2022-11-02T22:53:37.518Z,96209.06
2022-11-02T22:56:08.451Z,96209.09
2022-11-02T22:58:35.473Z,96219.91
2022-11-02T23:01:02.249Z,96216.06
2022-11-02T23:03:30.066Z,96222.25
2022-11-02T23:05:57.932Z,96227.63
2022-11-02T23:08:24.465Z,96220.72
2022-11-02T23:11:16.166Z,96231.88
2022-11-02T23:13:43.728Z,96233.81
2022-11-02T23:16:23.457Z,96240.00
2022-11-02T23:19:27.068Z,96247.72
2022-11-02T23:22:29.233Z,96274.84
2022-11-02T23:25:12.053Z,96284.09
2022-11-02T23:27:58.538Z,96281.78
2022-11-02T23:30:44.731Z,96280.50
2022-11-02T23:33:13.586Z,96272.47
2022-11-02T23:35:59.009Z,96278.94
2022-11-02T23:38:47.770Z,96260.88
2022-11-02T23:41:14.526Z,96271.59
2022-11-02T23:43:40.989Z,96266.22
2022-11-02T23:46:07.421Z,96270.88
2022-11-02T23:48:33.818Z,96271.19
2022-11-02T23:51:19.354Z,96256.19
2022-11-02T23:54:04.196Z,96268.13
2022-11-02T23:56:43.780Z,96256.22
2022-11-02T23:59:10.739Z,96246.16
